This is the latest recevied weather packets stored in our database for station/object SQ9MHX-13. If no packets are shown the sender has not sent any weather packets the latest 10 day(s).
| Time | Temp. | Humidity | Pressure | Rain* | Wind** | Luminosity | Snow |
|---|---|---|---|---|---|---|---|
| 1777950861 | 7.22° C | 76% | 973 hPa | - | 0 m/s | - | - |
| 1777950563 | 7.78° C | 71% | 972.3 hPa | - | 0 m/s | - | - |
| 1777950265 | 7.78° C | 73% | 973.1 hPa | - | 0 m/s | - | - |
| 1777949967 | 7.22° C | 73% | 973.1 hPa | - | 0 m/s | - | - |
| 1777949668 | 7.78° C | 70% | 972.4 hPa | - | 0 m/s | - | - |
| 1777949370 | 7.22° C | 71% | 973.3 hPa | - | 0 m/s | - | - |
| 1777949072 | 7.78° C | 72% | 972.3 hPa | - | 0 m/s | - | - |
| 1777948773 | 8.89° C | 67% | 971.5 hPa | - | 0 m/s | - | - |
| 1777948475 | 7.78° C | 68% | 972.6 hPa | - | 0 m/s | - | - |
| 1777948177 | 7.22° C | 72% | 973.8 hPa | - | 0 m/s | - | - |
| 1777947879 | 7.78° C | 70% | 973.2 hPa | - | 0 m/s | - | - |
| 1777947580 | 7.78° C | 71% | 972.8 hPa | - | 0 m/s | - | - |
| 1777947282 | 7.78° C | 71% | 971.4 hPa | - | 0 m/s | - | - |
| 1777946984 | 8.89° C | 64% | 969.9 hPa | - | 0 m/s | - | - |
| 1777946685 | 10° C | 60% | 969.6 hPa | - | 0 m/s | - | - |
| 1777946387 | 10° C | 59% | 969.6 hPa | - | 0 m/s | - | - |
| 1777946088 | 10° C | 60% | 969.6 hPa | - | 0 m/s | - | - |
| 1777945790 | 10° C | 59% | 969.7 hPa | - | 0 m/s | - | - |
| 1777945492 | 10° C | 60% | 970.5 hPa | - | 0 m/s | - | - |
| 1777945200 | 8.89° C | 64% | 972.4 hPa | - | 0 m/s | - | - |
| 1777944895 | 7.78° C | 66% | 972.6 hPa | - | 0 m/s | - | - |
| 1777944597 | 7.78° C | 66% | 971.7 hPa | - | 0 m/s | - | - |
| 1777944298 | 8.89° C | 61% | 970.6 hPa | - | 0 m/s | - | - |
| 1777944000 | 10° C | 59% | 970.3 hPa | - | 0 m/s | - | - |
| 1777943702 | 8.89° C | 61% | 971 hPa | - | 0 m/s | - | - |
* Rain since midnight (hover to see other rain measurements)
** Current wind speed in m/s (hover to see current wind gust speed)